Time;durP1;ratioP1;P1;durP2;ratioP2;P2;SDS_P1;SDS_P2;PMS_P1;PMS_P2;Temp;Humidity;BMP_temperature;BMP_pressure;BME280_temperature;BME280_humidity;BME280_pressure;Samples;Min_cycle;Max_cycle;Signal;HPM_P1;HPM_P2
2023/09/20 00:00:40;;;;;;;5.68;1.92;;;;;;;21.24;43.14;100714.72;5028519;27;98549;-74
2023/09/20 00:03:08;;;;;;;6.43;2.17;;;;;;;21.17;43.29;100707.25;5029491;27;99207;-73
2023/09/20 00:05:39;;;;;;;5.55;1.75;;;;;;;21.03;43.46;100703.81;5028122;27;97647;-73
2023/09/20 00:08:05;;;;;;;8.02;1.90;;;;;;;20.91;43.75;100718.22;5029774;27;97724;-74
2023/09/20 00:10:32;;;;;;;9.95;2.03;;;;;;;20.97;43.67;100711.50;5028739;27;99249;-74
2023/09/20 00:12:58;;;;;;;6.60;1.70;;;;;;;20.96;43.66;100707.97;5029257;27;98948;-73
2023/09/20 00:15:25;;;;;;;8.30;2.20;;;;;;;20.90;44.07;100712.97;5030576;27;96791;-74
2023/09/20 00:17:52;;;;;;;7.95;2.05;;;;;;;20.96;43.59;100707.97;5028635;27;96763;-74
2023/09/20 00:20:19;;;;;;;4.88;2.10;;;;;;;21.01;43.69;100718.34;5022009;27;99169;-74
2023/09/20 00:22:47;;;;;;;8.38;2.10;;;;;;;21.01;43.85;100705.75;5029109;27;98940;-74
2023/09/20 00:25:15;;;;;;;8.20;2.17;;;;;;;21.02;43.55;100701.25;5028456;27;96933;-74
2023/09/20 00:27:45;;;;;;;7.05;1.80;;;;;;;20.89;43.99;100713.94;5030432;27;96736;-74
2023/09/20 00:30:17;;;;;;;4.60;1.80;;;;;;;20.96;44.03;100710.66;5029465;27;97880;-74
2023/09/20 00:32:44;;;;;;;7.50;2.00;;;;;;;20.99;43.95;100705.03;5029132;27;98847;-74
2023/09/20 00:35:13;;;;;;;8.10;2.05;;;;;;;20.86;44.02;100711.50;5028581;27;98884;-75
2023/09/20 00:37:40;;;;;;;6.05;2.10;;;;;;;20.92;44.16;100714.56;5029986;27;96836;-74
2023/09/20 00:40:15;;;;;;;7.57;2.20;;;;;;;21.02;43.84;100710.16;5027647;27;98933;-75
2023/09/20 00:42:43;;;;;;;6.32;2.20;;;;;;;20.88;44.41;100714.91;5025760;28;104115;-74
2023/09/20 00:45:10;;;;;;;6.20;2.15;;;;;;;20.94;44.21;100709.91;5029446;27;97106;-74
2023/09/20 00:47:40;;;;;;;7.68;1.77;;;;;;;20.76;44.65;100708.69;5029133;27;97871;-74
2023/09/20 00:50:09;;;;;;;8.75;2.08;;;;;;;20.78;44.76;100703.19;5027082;27;99438;-74
2023/09/20 00:52:39;;;;;;;8.63;2.58;;;;;;;20.88;44.09;100707.69;5027538;28;102571;-75
2023/09/20 00:55:07;;;;;;;5.88;1.80;;;;;;;20.75;44.33;100698.91;5027692;27;96822;-74
2023/09/20 00:57:35;;;;;;;6.55;2.17;;;;;;;20.81;44.66;100702.94;5029282;27;96794;-74
2023/09/20 01:00:13;;;;;;;7.45;2.42;;;;;;;20.77;44.67;100702.34;5028765;27;99802;-75
2023/09/20 01:02:40;;;;;;;5.10;1.80;;;;;;;20.67;44.93;100704.03;5024776;27;99114;-74
2023/09/20 01:05:07;;;;;;;8.40;2.38;;;;;;;20.63;44.81;100710.59;5028128;27;96862;-74
2023/09/20 01:07:34;;;;;;;10.35;2.15;;;;;;;20.52;45.48;100716.81;5026925;27;98405;-74
2023/09/20 01:10:00;;;;;;;6.47;2.30;;;;;;;20.56;45.42;100715.59;5023597;27;102338;-73
2023/09/20 01:12:27;;;;;;;5.45;1.90;;;;;;;20.69;45.23;100719.03;5028996;27;99022;-74
2023/09/20 01:14:55;;;;;;;6.82;1.67;;;;;;;20.47;45.48;100728.88;5027596;27;96800;-73
2023/09/20 01:17:21;;;;;;;6.68;1.83;;;;;;;20.38;45.71;100726.91;5030197;27;97020;-74
2023/09/20 01:19:48;;;;;;;3.83;1.45;;;;;;;20.49;46.07;100717.03;5030082;27;99018;-74
2023/09/20 01:22:16;;;;;;;5.53;1.75;;;;;;;20.37;46.11;100728.72;5039341;27;98922;-74
2023/09/20 01:24:44;;;;;;;7.68;2.35;;;;;;;20.54;45.97;100725.63;5037213;27;98467;-73
2023/09/20 01:27:13;;;;;;;9.88;2.03;;;;;;;20.25;46.65;100725.13;5031224;27;96876;-74
2023/09/20 01:29:39;;;;;;;4.68;1.85;;;;;;;20.41;46.25;100730.22;5039050;27;98779;-74
2023/09/20 01:32:06;;;;;;;5.40;2.65;;;;;;;20.46;46.26;100728.03;5037732;27;97560;-74
2023/09/20 01:34:32;;;;;;;7.13;1.85;;;;;;;20.43;46.53;100720.19;5038484;27;96835;-74
2023/09/20 01:36:59;;;;;;;5.18;1.83;;;;;;;20.42;46.41;100715.81;5044017;27;96900;-74
2023/09/20 01:39:27;;;;;;;5.78;1.73;;;;;;;20.36;46.76;100720.78;5041856;27;98991;-74
2023/09/20 01:41:53;;;;;;;6.40;1.75;;;;;;;20.36;46.71;100710.03;5040027;27;98862;-74
2023/09/20 01:44:22;;;;;;;7.18;1.90;;;;;;;20.23;46.91;100710.97;5037712;27;96988;-74
2023/09/20 01:46:48;;;;;;;6.95;2.28;;;;;;;20.19;46.77;100703.28;5030058;27;96785;-74
2023/09/20 01:49:15;;;;;;;9.93;2.25;;;;;;;20.35;46.65;100703.00;5031472;27;99155;-74
2023/09/20 01:51:41;;;;;;;6.72;2.20;;;;;;;20.28;46.98;100708.78;5032435;27;99254;-73
2023/09/20 01:54:08;;;;;;;5.18;1.73;;;;;;;20.33;47.09;100702.25;5037495;27;97076;-74
2023/09/20 01:56:36;;;;;;;6.65;2.03;;;;;;;20.29;46.84;100702.44;5039880;27;96850;-73
2023/09/20 01:59:05;;;;;;;8.60;2.28;;;;;;;20.46;46.77;100703.88;5039352;27;99779;-74
2023/09/20 02:01:32;;;;;;;6.22;1.70;;;;;;;20.54;46.69;100700.59;5034394;27;98918;-73
2023/09/20 02:03:59;;;;;;;7.20;1.90;;;;;;;20.55;46.45;100704.97;5032993;27;96675;-73
2023/09/20 02:06:26;;;;;;;6.72;2.03;;;;;;;20.58;46.56;100700.22;5041143;27;96821;-74
2023/09/20 02:08:53;;;;;;;7.78;1.80;;;;;;;20.60;46.69;100706.34;5044193;27;99366;-74
2023/09/20 02:11:20;;;;;;;9.85;2.00;;;;;;;20.54;46.82;100716.72;5029049;27;99129;-74
2023/09/20 02:13:47;;;;;;;10.95;2.33;;;;;;;20.54;46.75;100709.50;5029024;27;97038;-73
2023/09/20 02:16:14;;;;;;;4.43;1.95;;;;;;;20.52;46.69;100710.59;5030775;27;97278;-74
2023/09/20 02:18:40;;;;;;;4.25;1.55;;;;;;;20.35;47.49;100714.56;5029387;27;99031;-74
2023/09/20 02:21:07;;;;;;;5.30;1.70;;;;;;;20.30;47.65;100708.66;5025577;27;99330;-74
2023/09/20 02:23:34;;;;;;;4.75;1.88;;;;;;;20.42;47.16;100705.06;5028712;27;97156;-74
2023/09/20 02:26:00;;;;;;;5.18;2.03;;;;;;;20.59;46.97;100709.16;5023799;27;97872;-74
2023/09/20 02:28:27;;;;;;;8.07;1.90;;;;;;;20.55;46.99;100707.66;5029267;27;99888;-74
2023/09/20 02:30:55;;;;;;;5.65;2.08;;;;;;;20.37;47.68;100709.06;5027861;27;98815;-74
2023/09/20 02:33:22;;;;;;;6.38;1.98;;;;;;;20.55;47.26;100700.47;5026989;27;96676;-74
2023/09/20 02:35:49;;;;;;;7.38;2.28;;;;;;;20.49;47.30;100706.31;5034862;27;96884;-74
2023/09/20 02:38:15;;;;;;;5.30;1.50;;;;;;;20.55;47.26;100697.78;5030644;27;101276;-74
2023/09/20 02:40:45;;;;;;;7.10;1.50;;;;;;;20.75;47.18;100698.91;5033903;27;97531;-74
2023/09/20 02:43:13;;;;;;;5.95;2.10;;;;;;;20.40;47.67;100695.44;5034419;27;96850;-73
2023/09/20 02:45:40;;;;;;;4.03;1.63;;;;;;;20.55;47.69;100700.47;5034535;27;96784;-73
2023/09/20 02:48:08;;;;;;;5.00;1.52;;;;;;;20.53;47.58;100696.19;5034386;27;99048;-74
2023/09/20 02:50:34;;;;;;;7.15;1.90;;;;;;;20.47;48.16;100697.53;5028915;27;97689;-73
2023/09/20 02:53:01;;;;;;;3.83;1.65;;;;;;;20.69;47.27;100696.69;5030601;27;96774;-74
2023/09/20 02:55:30;;;;;;;6.45;2.00;;;;;;;20.72;47.38;100699.16;5027080;27;96942;-73
2023/09/20 02:57:57;;;;;;;5.35;1.52;;;;;;;20.63;47.64;100702.56;5034752;27;99716;-75
2023/09/20 03:00:27;;;;;;;5.05;1.80;;;;;;;20.61;47.83;100694.59;5033395;27;99085;-74
2023/09/20 03:02:56;;;;;;;5.75;1.60;;;;;;;20.71;47.79;100691.22;5034518;27;97063;-74
2023/09/20 03:05:26;;;;;;;7.63;1.70;;;;;;;20.67;48.02;100682.56;5033515;27;97491;-74
2023/09/20 03:07:53;;;;;;;4.57;1.67;;;;;;;20.55;47.92;100683.50;5033353;27;99236;-74
2023/09/20 03:10:21;;;;;;;5.53;1.65;;;;;;;20.75;47.69;100674.75;5033161;27;99191;-74
2023/09/20 03:12:51;;;;;;;4.70;1.88;;;;;;;20.61;47.84;100681.19;5034014;27;96920;-74
2023/09/20 03:15:21;;;;;;;4.88;1.90;;;;;;;20.51;48.22;100676.66;5034187;27;96785;-74
2023/09/20 03:17:49;;;;;;;6.43;1.88;;;;;;;20.54;48.43;100682.66;5032619;27;97808;-74
2023/09/20 03:20:22;;;;;;;6.05;2.22;;;;;;;20.80;48.18;100691.38;5033521;27;99519;-74
2023/09/20 03:22:51;;;;;;;8.52;1.67;;;;;;;20.88;47.66;100680.84;5035494;27;97008;-74
2023/09/20 03:25:19;;;;;;;6.18;1.90;;;;;;;20.67;48.24;100687.94;5029898;27;98247;-73
2023/09/20 03:27:46;;;;;;;5.65;1.50;;;;;;;20.69;48.25;100685.97;5033790;27;99416;-73
2023/09/20 03:30:13;;;;;;;7.38;2.30;;;;;;;20.68;48.35;100697.66;5033028;27;97613;-73
2023/09/20 03:32:42;;;;;;;3.03;1.27;;;;;;;20.54;48.76;100700.59;5034381;27;97249;-74
2023/09/20 03:35:10;;;;;;;5.07;1.98;;;;;;;20.48;48.81;100693.03;5032806;27;96883;-75
2023/09/20 03:37:37;;;;;;;6.18;2.08;;;;;;;20.59;48.58;100695.72;5034351;27;99377;-73
2023/09/20 03:40:10;;;;;;;5.43;1.45;;;;;;;20.56;49.08;100702.16;5033908;27;102713;-73
2023/09/20 03:42:37;;;;;;;6.00;1.85;;;;;;;20.63;48.81;100695.34;5026451;27;97616;-74
2023/09/20 03:45:05;;;;;;;4.65;1.73;;;;;;;20.51;49.29;100692.78;5033531;27;96821;-74
2023/09/20 03:47:31;;;;;;;10.43;1.98;;;;;;;20.59;49.07;100691.22;5028933;27;98955;-74
2023/09/20 03:49:57;;;;;;;6.97;1.35;;;;;;;20.46;49.35;100686.91;5030114;27;97672;-74
2023/09/20 03:52:24;;;;;;;5.25;1.58;;;;;;;20.64;49.19;100686.34;5030976;27;96860;-74
2023/09/20 03:54:51;;;;;;;7.97;1.67;;;;;;;20.44;49.75;100686.16;5026683;27;96869;-74
2023/09/20 03:57:19;;;;;;;8.25;1.95;;;;;;;20.34;50.08;100690.56;5028470;27;97905;-74
2023/09/20 03:59:47;;;;;;;3.25;1.73;;;;;;;20.32;50.38;100685.25;5029776;27;99141;-74
2023/09/20 04:02:14;;;;;;;9.00;1.63;;;;;;;20.32;50.29;100690.63;5030081;27;96713;-74
2023/09/20 04:04:40;;;;;;;8.73;2.00;;;;;;;20.38;50.23;100697.38;5030885;27;96924;-73
2023/09/20 04:07:07;;;;;;;5.63;1.75;;;;;;;20.28;50.54;100691.84;5028847;27;102121;-74
2023/09/20 04:09:35;;;;;;;8.32;1.50;;;;;;;20.36;50.33;100692.13;5030364;27;98791;-74
2023/09/20 04:12:02;;;;;;;9.00;2.03;;;;;;;20.29;50.78;100688.16;5029410;27;96737;-74
2023/09/20 04:14:30;;;;;;;4.45;1.80;;;;;;;20.43;50.75;100687.13;5028784;27;96981;-74
2023/09/20 04:16:57;;;;;;;4.43;2.20;;;;;;;20.29;50.89;100690.84;5028321;27;98980;-74
2023/09/20 04:19:24;;;;;;;4.35;1.73;;;;;;;20.34;50.92;100687.88;5029028;27;99203;-74
2023/09/20 04:21:51;;;;;;;6.40;1.80;;;;;;;20.25;51.10;100695.59;5030999;27;96603;-74
2023/09/20 04:24:18;;;;;;;4.18;1.50;;;;;;;20.18;51.57;100701.56;5028168;27;97640;-73
2023/09/20 04:26:44;;;;;;;4.85;1.85;;;;;;;20.23;51.36;100702.91;5030711;27;101412;-74
2023/09/20 04:29:11;;;;;;;5.97;1.95;;;;;;;20.32;51.16;100701.34;5029486;27;101097;-74
2023/09/20 04:31:40;;;;;;;5.03;1.80;;;;;;;20.23;51.45;100699.38;5030808;27;96707;-75
2023/09/20 04:34:09;;;;;;;7.65;1.73;;;;;;;20.16;51.77;100704.34;5029573;27;97037;-74
2023/09/20 04:36:36;;;;;;;6.40;2.20;;;;;;;20.11;51.93;100701.16;5030147;27;101408;-74
2023/09/20 04:39:04;;;;;;;7.43;2.00;;;;;;;20.25;51.78;100703.66;5030185;27;98731;-74
2023/09/20 04:41:32;;;;;;;7.35;1.75;;;;;;;20.21;52.20;100702.19;5027697;27;97675;-74
2023/09/20 04:43:59;;;;;;;5.80;1.75;;;;;;;20.31;51.82;100702.31;5030903;27;97636;-74
2023/09/20 04:46:27;;;;;;;4.03;1.60;;;;;;;20.23;51.87;100705.59;5030223;27;97517;-73
2023/09/20 04:48:55;;;;;;;6.53;1.90;;;;;;;20.15;52.49;100713.34;5030361;27;97750;-73
2023/09/20 04:51:22;;;;;;;4.40;1.70;;;;;;;20.15;52.48;100715.22;5028491;27;96962;-74
2023/09/20 04:53:49;;;;;;;6.75;1.52;;;;;;;20.18;52.39;100717.66;5029821;27;96840;-74
2023/09/20 04:56:16;;;;;;;6.22;2.00;;;;;;;20.05;53.11;100723.09;5027751;27;99259;-74
2023/09/20 04:58:43;;;;;;;8.50;2.15;;;;;;;20.02;53.55;100717.94;5029685;27;98484;-74
2023/09/20 05:01:14;;;;;;;7.22;1.70;;;;;;;20.14;53.46;100725.09;5028021;27;97539;-75
2023/09/20 05:03:41;;;;;;;6.70;2.13;;;;;;;20.20;52.98;100724.63;5026713;27;96816;-74
2023/09/20 05:06:09;;;;;;;6.80;2.10;;;;;;;19.99;53.90;100722.69;5028134;27;99094;-74
2023/09/20 05:08:36;;;;;;;6.63;2.20;;;;;;;19.98;53.86;100726.34;5026277;27;99196;-73
2023/09/20 05:11:04;;;;;;;7.32;1.95;;;;;;;20.08;54.03;100735.44;5025375;27;97109;-73
2023/09/20 05:13:30;;;;;;;3.88;1.80;;;;;;;20.09;53.95;100735.28;5027934;27;97023;-74
2023/09/20 05:15:57;;;;;;;4.78;1.80;;;;;;;19.99;54.61;100747.69;5029523;27;101442;-73
2023/09/20 05:18:23;;;;;;;7.85;1.98;;;;;;;20.14;54.06;100726.91;5028247;27;98997;-74
2023/09/20 05:20:50;;;;;;;6.70;1.90;;;;;;;20.16;54.01;100733.00;5028635;27;96982;-74
2023/09/20 05:23:17;;;;;;;5.80;1.75;;;;;;;20.30;53.27;100736.34;5028479;27;97789;-74
2023/09/20 05:25:44;;;;;;;8.25;2.50;;;;;;;20.43;53.30;100733.63;5029355;27;97765;-74
2023/09/20 05:28:10;;;;;;;7.25;1.73;;;;;;;20.35;53.22;100732.53;5027101;27;98245;-75
2023/09/20 05:30:38;;;;;;;7.07;1.88;;;;;;;20.46;53.04;100727.16;5028561;27;97104;-74
2023/09/20 05:33:05;;;;;;;8.15;1.92;;;;;;;20.36;53.33;100735.06;5028648;27;98882;-75
2023/09/20 05:35:31;;;;;;;6.18;1.83;;;;;;;20.17;54.28;100730.19;5027698;27;99824;-73
2023/09/20 05:37:59;;;;;;;12.10;2.22;;;;;;;20.39;54.07;100747.41;5027749;27;97691;-75
2023/09/20 05:40:28;;;;;;;4.57;1.50;;;;;;;20.47;53.38;100747.69;5029311;27;96947;-74
2023/09/20 05:42:55;;;;;;;5.32;2.00;;;;;;;20.32;54.29;100746.13;5028104;27;96930;-73
2023/09/20 05:45:23;;;;;;;10.68;1.90;;;;;;;20.52;53.49;100753.53;5024359;27;101057;-75
2023/09/20 05:47:50;;;;;;;9.75;2.20;;;;;;;20.43;53.94;100748.88;5034880;27;99710;-73
2023/09/20 05:50:16;;;;;;;3.15;1.65;;;;;;;20.55;53.78;100759.50;5030382;27;96786;-73
2023/09/20 05:52:43;;;;;;;7.85;2.30;;;;;;;20.60;53.41;100759.19;5039531;27;96735;-75
2023/09/20 05:55:14;;;;;;;4.55;1.65;;;;;;;20.39;54.02;100747.41;5029943;27;99704;-74
2023/09/20 05:57:42;;;;;;;6.65;1.60;;;;;;;20.50;53.91;100753.66;5021028;28;102658;-75
2023/09/20 06:00:16;;;;;;;5.07;1.33;;;;;;;20.78;53.47;100754.22;5029458;28;96919;-74
2023/09/20 06:02:42;;;;;;;4.72;1.50;;;;;;;20.62;53.91;100765.28;5024687;27;96927;-74
2023/09/20 06:05:11;;;;;;;3.40;1.92;;;;;;;20.53;54.11;100757.94;5027937;28;99289;-74
2023/09/20 06:07:38;;;;;;;4.50;1.55;;;;;;;20.56;54.58;100757.69;5029021;28;101159;-74
2023/09/20 06:10:06;;;;;;;2.67;1.80;;;;;;;20.82;53.75;100758.34;5027435;27;97009;-75
2023/09/20 06:12:32;;;;;;;7.28;1.70;;;;;;;20.83;54.21;100752.88;5026150;28;100987;-75
2023/09/20 06:15:00;;;;;;;11.07;2.08;;;;;;;21.01;53.40;100758.63;5024547;28;98993;-75
2023/09/20 06:17:29;;;;;;;12.32;2.40;;;;;;;21.09;53.62;100757.06;5025340;27;99451;-74
2023/09/20 06:19:56;;;;;;;8.88;2.25;;;;;;;21.22;53.05;100764.16;5020953;28;97392;-74
2023/09/20 06:22:23;;;;;;;9.20;2.17;;;;;;;20.98;53.61;100765.13;5025409;28;96976;-73
2023/09/20 06:24:50;;;;;;;4.38;1.50;;;;;;;21.51;52.52;100754.66;5025689;27;99089;-74
2023/09/20 06:27:16;;;;;;;4.82;1.70;;;;;;;21.60;52.21;100745.81;5037900;27;98737;-71
2023/09/20 06:29:43;;;;;;;6.10;1.73;;;;;;;21.61;52.16;100747.53;5027099;27;96680;-71
2023/09/20 06:32:11;;;;;;;7.55;1.70;;;;;;;21.90;51.38;100757.75;5036350;27;97722;-71
2023/09/20 06:34:37;;;;;;;4.38;1.80;;;;;;;22.19;50.75;100764.25;5023548;27;97696;-72
2023/09/20 06:37:04;;;;;;;8.07;1.70;;;;;;;22.20;50.54;100757.91;5025960;28;99648;-71
2023/09/20 06:39:30;;;;;;;8.13;1.80;;;;;;;22.14;50.59;100753.91;5025986;28;96792;-72
2023/09/20 06:41:57;;;;;;;7.18;1.70;;;;;;;22.20;50.58;100758.75;5024411;27;98535;-71
2023/09/20 06:44:24;;;;;;;4.35;1.85;;;;;;;22.32;50.38;100758.75;5027204;27;97973;-72
2023/09/20 06:46:50;;;;;;;10.30;2.50;;;;;;;22.30;50.36;100764.25;5027406;27;98927;-72
2023/09/20 06:49:18;;;;;;;7.40;1.75;;;;;;;22.07;51.11;100762.59;5032615;27;97093;-72
2023/09/20 06:51:44;;;;;;;4.32;1.30;;;;;;;22.31;50.50;100765.09;5032804;27;97366;-72
2023/09/20 06:54:12;;;;;;;8.93;1.85;;;;;;;22.49;50.07;100759.00;5025390;27;98933;-72
2023/09/20 06:56:38;;;;;;;6.82;2.05;;;;;;;22.57;49.87;100767.31;5030951;27;99235;-72
2023/09/20 06:59:05;;;;;;;4.72;1.45;;;;;;;22.43;50.26;100764.06;5028492;27;96758;-72
2023/09/20 07:01:32;;;;;;;4.32;1.65;;;;;;;22.59;49.85;100768.00;5025725;27;96933;-71
2023/09/20 07:03:58;;;;;;;6.35;1.75;;;;;;;22.90;49.06;100762.72;5028735;27;100118;-71
2023/09/20 07:06:29;;;;;;;6.03;2.03;;;;;;;23.12;48.57;100767.94;5027330;27;98658;-71
2023/09/20 07:08:58;;;;;;;7.63;1.70;;;;;;;23.05;48.49;100772.16;5027057;27;97406;-72
2023/09/20 07:11:26;;;;;;;5.13;1.65;;;;;;;23.28;48.06;100775.53;5027422;28;96933;-71
2023/09/20 07:13:53;;;;;;;6.35;1.77;;;;;;;23.26;48.14;100772.13;5028754;28;98513;-72
2023/09/20 07:16:20;;;;;;;6.72;1.52;;;;;;;23.56;47.74;100771.28;5028523;28;99903;-72
2023/09/20 07:18:47;;;;;;;7.55;1.80;;;;;;;23.65;47.52;100776.69;5028467;28;97064;-73
2023/09/20 07:21:14;;;;;;;4.80;2.03;;;;;;;23.41;47.69;100777.03;5030091;27;96703;-72
2023/09/20 07:23:42;;;;;;;7.45;2.88;;;;;;;23.46;47.90;100773.91;5031488;28;99214;-72
2023/09/20 07:26:08;;;;;;;4.07;1.80;;;;;;;23.33;48.65;100779.53;5032502;28;99047;-71
2023/09/20 07:28:36;;;;;;;7.53;1.75;;;;;;;23.69;47.92;100771.91;5032008;27;96758;-71
2023/09/20 07:31:03;;;;;;;10.68;3.40;;;;;;;23.85;47.29;100783.00;5030049;27;96933;-72
2023/09/20 07:33:31;;;;;;;9.70;2.10;;;;;;;23.99;46.50;100779.06;5033333;27;99481;-72
2023/09/20 07:36:00;;;;;;;9.35;2.95;;;;;;;24.08;46.87;100773.69;5029517;28;98645;-72
2023/09/20 07:38:28;;;;;;;10.18;2.00;;;;;;;23.97;47.00;100775.63;5029330;27;97248;-72
2023/09/20 07:41:05;;;;;;;6.95;1.80;;;;;;;24.04;46.19;100772.25;5029248;27;98924;-71
2023/09/20 07:43:32;;;;;;;7.20;1.75;;;;;;;23.86;46.98;100773.91;5031167;28;99355;-73
2023/09/20 07:46:03;;;;;;;9.13;1.90;;;;;;;23.74;47.55;100780.44;5027317;27;97782;-75
2023/09/20 07:48:30;;;;;;;6.03;1.73;;;;;;;23.49;47.97;100780.91;5027419;27;96857;-76
2023/09/20 07:50:57;;;;;;;8.43;1.80;;;;;;;23.61;48.25;100782.50;5030400;28;96842;-75
2023/09/20 07:53:25;;;;;;;6.05;1.70;;;;;;;23.82;47.98;100783.28;5029670;27;97694;-76
2023/09/20 07:56:00;;;;;;;3.20;1.70;;;;;;;24.28;46.93;100787.22;5025837;27;98611;-78
2023/09/20 07:58:28;;;;;;;7.10;2.00;;;;;;;24.03;46.71;100781.31;5026394;27;97672;-75
2023/09/20 08:00:56;;;;;;;8.35;1.63;;;;;;;24.12;46.64;100791.28;5029889;27;96898;-74
2023/09/20 08:03:23;;;;;;;3.08;1.40;;;;;;;24.30;46.77;100785.22;5023147;27;98974;-75
2023/09/20 08:05:50;;;;;;;3.90;1.70;;;;;;;24.51;45.80;100799.44;5025767;27;99156;-76
2023/09/20 08:08:17;;;;;;;5.07;1.38;;;;;;;24.62;46.13;100794.75;5022845;27;96861;-77
2023/09/20 08:10:44;;;;;;;7.35;1.35;;;;;;;24.90;45.50;100793.03;5024858;27;97081;-76
2023/09/20 08:13:11;;;;;;;11.00;1.73;;;;;;;25.10;44.73;100799.25;5028333;27;100301;-75
2023/09/20 08:15:42;;;;;;;4.05;1.30;;;;;;;25.52;43.56;100804.25;5025834;27;99840;-75
2023/09/20 08:20:53;;;;;;;9.20;1.65;;;;;;;25.02;44.98;100808.09;5025571;27;96858;-74
2023/09/20 09:01:44;;;;;;;5.38;1.10;;;;;;;25.98;43.37;100787.06;5025288;27;96960;-75
2023/09/20 09:04:18;;;;;;;5.82;1.42;;;;;;;26.12;43.08;100789.25;5028041;27;96775;-77
2023/09/20 09:06:45;;;;;;;7.28;1.48;;;;;;;26.52;42.44;100778.81;5025531;27;98877;-75
2023/09/20 09:09:12;;;;;;;5.10;1.67;;;;;;;26.54;42.49;100786.81;5026382;27;99370;-78
2023/09/20 09:11:38;;;;;;;6.45;1.67;;;;;;;26.29;42.84;100785.72;5027604;27;97340;-75
2023/09/20 09:14:06;;;;;;;3.65;1.42;;;;;;;26.34;42.79;100780.69;5027895;27;97036;-77
2023/09/20 09:16:33;;;;;;;6.75;1.48;;;;;;;26.09;42.86;100784.13;5026451;27;98904;-75
2023/09/20 09:19:00;;;;;;;4.75;1.45;;;;;;;25.70;43.73;100783.53;5027735;27;99010;-75
2023/09/20 09:21:28;;;;;;;3.60;1.30;;;;;;;25.56;44.32;100773.16;5026767;27;97238;-77
2023/09/20 09:23:54;;;;;;;3.05;1.40;;;;;;;25.27;44.88;100784.13;5027305;27;97166;-76
2023/09/20 09:26:22;;;;;;;4.05;1.40;;;;;;;24.92;45.87;100782.09;5024822;27;98927;-75
2023/09/20 09:28:49;;;;;;;5.95;1.55;;;;;;;24.95;45.90;100774.53;5025781;27;98830;-76
2023/09/20 09:31:16;;;;;;;3.90;1.45;;;;;;;25.04;45.37;100782.75;5023420;27;96836;-76
2023/09/20 09:33:43;;;;;;;9.05;1.60;;;;;;;25.01;45.52;100781.19;5026630;27;97101;-76
2023/09/20 09:36:12;;;;;;;4.43;1.45;;;;;;;25.00;45.59;100785.78;5025441;27;99277;-74
2023/09/20 09:38:41;;;;;;;2.95;1.33;;;;;;;24.96;45.59;100787.03;5024874;27;99122;-77
2023/09/20 09:41:08;;;;;;;10.75;4.80;;;;;;;24.72;46.05;100788.50;5027235;27;96940;-75
2023/09/20 09:43:35;;;;;;;13.38;7.28;;;;;;;24.64;46.35;100783.78;5021722;27;97205;-75
2023/09/20 09:46:08;;;;;;;8.13;3.45;;;;;;;24.78;46.15;100783.34;5026026;27;102321;-74
2023/09/20 09:48:35;;;;;;;4.75;1.67;;;;;;;24.76;46.49;100779.94;5024971;27;99153;-74
2023/09/20 09:51:01;;;;;;;6.00;1.63;;;;;;;24.79;46.45;100784.22;5024168;27;96799;-75
2023/09/20 09:53:29;;;;;;;7.97;1.67;;;;;;;24.80;46.68;100791.31;5026710;27;97723;-76
2023/09/20 09:55:59;;;;;;;3.60;1.40;;;;;;;24.68;46.58;100779.81;5024487;27;100546;-75
2023/09/20 09:58:25;;;;;;;7.00;2.03;;;;;;;24.57;46.97;100782.66;5032389;27;99443;-75
2023/09/20 10:00:54;;;;;;;6.63;1.80;;;;;;;24.53;47.32;100774.00;5028065;27;97292;-75
2023/09/20 10:03:29;;;;;;;6.85;2.00;;;;;;;24.87;46.37;100774.41;5025137;27;97190;-75
2023/09/20 10:06:05;;;;;;;5.70;1.50;;;;;;;25.15;45.89;100764.50;5024565;27;98868;-74
2023/09/20 10:08:36;;;;;;;6.35;2.10;;;;;;;25.34;45.35;100768.97;5021056;27;99392;-74
2023/09/20 10:11:06;;;;;;;5.03;1.38;;;;;;;25.52;45.08;100760.94;5024406;28;97215;-74
2023/09/20 10:13:35;;;;;;;7.07;1.33;;;;;;;25.65;44.40;100764.19;5025946;27;96863;-76
2023/09/20 10:16:04;;;;;;;5.93;1.30;;;;;;;25.50;44.75;100769.22;5026817;27;99341;-75
2023/09/20 10:18:33;;;;;;;4.25;1.40;;;;;;;25.26;45.74;100769.75;5025667;27;99078;-74
2023/09/20 10:21:05;;;;;;;7.72;1.80;;;;;;;25.22;45.61;100762.06;5026584;27;97409;-75
2023/09/20 10:23:35;;;;;;;7.53;1.55;;;;;;;25.39;44.92;100756.75;5028233;28;99688;-73
2023/09/20 10:26:01;;;;;;;10.85;2.10;;;;;;;25.54;45.02;100765.19;5022742;27;97747;-74
2023/09/20 10:28:37;;;;;;;4.85;2.00;;;;;;;25.36;44.72;100750.75;5015941;27;99129;-75
2023/09/20 10:31:06;;;;;;;9.65;1.50;;;;;;;25.59;44.62;100748.56;5018149;27;97306;-75
2023/09/20 10:33:41;;;;;;;5.68;1.60;;;;;;;25.47;44.51;100757.84;5023261;27;96958;-75
2023/09/20 10:36:07;;;;;;;6.90;1.92;;;;;;;25.16;45.79;100758.09;5025249;27;101170;-75
2023/09/20 10:38:34;;;;;;;5.63;1.48;;;;;;;25.70;44.78;100743.78;5024215;27;98825;-73
2023/09/20 10:41:07;;;;;;;4.18;1.70;;;;;;;26.14;43.64;100752.03;5023048;27;98745;-75
2023/09/20 10:43:54;;;;;;;6.93;1.73;;;;;;;25.77;44.42;100742.19;5026986;27;97303;-75
2023/09/20 10:46:23;;;;;;;5.85;1.38;;;;;;;25.54;44.83;100738.13;5022769;27;98954;-74
2023/09/20 10:48:51;;;;;;;4.00;1.58;;;;;;;25.77;44.66;100728.66;5025220;27;98968;-75
2023/09/20 10:51:44;;;;;;;5.15;1.42;;;;;;;25.88;44.00;100729.41;5024805;27;96931;-73
2023/09/20 10:54:22;;;;;;;3.50;1.58;;;;;;;25.94;43.80;100717.97;5025166;27;96864;-74
2023/09/20 10:57:07;;;;;;;3.58;1.23;;;;;;;25.88;44.02;100715.88;5028294;27;100143;-74
2023/09/20 10:59:36;;;;;;;7.30;2.15;;;;;;;25.96;43.50;100711.41;5026576;27;99337;-77
2023/09/20 11:02:08;;;;;;;7.15;2.25;;;;;;;25.77;43.96;100711.56;5028114;27;99388;-74
2023/09/20 11:04:35;;;;;;;4.82;2.10;;;;;;;25.77;44.21;100709.69;5028919;27;97146;-73
2023/09/20 11:07:02;;;;;;;8.65;1.55;;;;;;;25.77;43.88;100712.41;5026829;27;98968;-74
2023/09/20 11:09:33;;;;;;;6.30;1.70;;;;;;;25.82;44.05;100713.78;5029600;27;99156;-75
2023/09/20 11:12:04;;;;;;;5.45;1.45;;;;;;;26.13;43.86;100707.84;5028047;27;99210;-74
2023/09/20 11:14:36;;;;;;;4.57;1.50;;;;;;;25.97;43.89;100704.16;5029787;27;99002;-74
2023/09/20 11:17:05;;;;;;;2.08;1.50;;;;;;;25.98;43.75;100705.84;5029560;27;99234;-74
2023/09/20 11:19:32;;;;;;;7.85;1.33;;;;;;;26.14;43.22;100708.69;5029795;27;99778;-74
2023/09/20 11:21:59;;;;;;;6.38;1.48;;;;;;;25.96;43.59;100706.00;5026596;27;97326;-74
2023/09/20 11:24:26;;;;;;;9.80;2.38;;;;;;;26.19;43.74;100701.81;5028706;27;97897;-75
2023/09/20 11:26:55;;;;;;;5.82;1.80;;;;;;;26.39;43.18;100701.66;5029700;27;99259;-74
2023/09/20 11:29:21;;;;;;;7.05;2.00;;;;;;;26.51;42.80;100712.13;5032697;27;101315;-73
2023/09/20 11:31:50;;;;;;;5.10;1.80;;;;;;;26.30;42.88;100700.75;5031587;27;96948;-74
2023/09/20 11:34:19;;;;;;;5.88;1.65;;;;;;;26.23;43.21;100710.47;5028353;27;97050;-75
2023/09/20 11:36:48;;;;;;;7.20;1.70;;;;;;;26.27;43.41;100709.19;5031483;27;98461;-74
2023/09/20 11:39:15;;;;;;;6.57;2.00;;;;;;;26.48;43.00;100707.00;5034293;27;99224;-74
2023/09/20 11:41:43;;;;;;;5.72;1.88;;;;;;;26.44;42.60;100708.34;5027779;27;96827;-75
2023/09/20 11:44:10;;;;;;;7.45;2.30;;;;;;;26.75;42.49;100705.16;5033176;27;96892;-74
2023/09/20 11:46:37;;;;;;;9.02;1.95;;;;;;;26.94;42.23;100710.38;5028192;27;99064;-75
2023/09/20 11:49:08;;;;;;;6.38;1.40;;;;;;;27.00;41.88;100712.44;5031045;27;97600;-74
2023/09/20 11:51:36;;;;;;;3.72;1.45;;;;;;;26.90;42.71;100704.44;5025041;27;97608;-75
2023/09/20 11:54:05;;;;;;;7.85;1.95;;;;;;;26.65;41.83;100707.94;5028660;27;97192;-74
2023/09/20 11:56:35;;;;;;;5.45;1.58;;;;;;;26.87;42.02;100712.84;5024550;27;99048;-75
2023/09/20 11:59:06;;;;;;;6.03;1.80;;;;;;;26.81;42.20;100708.06;5027609;27;99269;-75
2023/09/20 12:01:33;;;;;;;5.28;1.33;;;;;;;27.12;41.91;100704.88;5023707;27;98114;-75
2023/09/20 12:04:00;;;;;;;7.90;1.55;;;;;;;26.79;41.86;100699.25;5029005;27;99921;-75
2023/09/20 12:06:28;;;;;;;5.05;2.00;;;;;;;26.76;42.08;100693.31;5028368;27;99355;-74
2023/09/20 12:08:55;;;;;;;8.43;1.88;;;;;;;27.01;41.96;100697.03;5028907;27;98710;-75